sensor_id;sensor_type;location;lat;lon;timestamp;temperature;humidity
7934;DHT22;4012;48.896;9.192;2023-08-08T00:02:18;14.40;99.90
7934;DHT22;4012;48.896;9.192;2023-08-08T00:04:44;14.40;99.90
7934;DHT22;4012;48.896;9.192;2023-08-08T00:07:09;14.30;99.90
7934;DHT22;4012;48.896;9.192;2023-08-08T00:09:35;14.30;99.90
7934;DHT22;4012;48.896;9.192;2023-08-08T00:12:01;14.30;99.90
7934;DHT22;4012;48.896;9.192;2023-08-08T00:14:27;14.30;99.90
7934;DHT22;4012;48.896;9.192;2023-08-08T00:16:52;14.40;99.90
7934;DHT22;4012;48.896;9.192;2023-08-08T00:19:18;14.40;99.90
7934;DHT22;4012;48.896;9.192;2023-08-08T00:21:43;14.40;99.90
7934;DHT22;4012;48.896;9.192;2023-08-08T00:24:09;14.40;99.90
7934;DHT22;4012;48.896;9.192;2023-08-08T00:26:34;14.50;99.90
7934;DHT22;4012;48.896;9.192;2023-08-08T00:29:00;14.50;99.90
7934;DHT22;4012;48.896;9.192;2023-08-08T00:31:25;14.50;99.90
7934;DHT22;4012;48.896;9.192;2023-08-08T00:33:51;14.60;99.90
7934;DHT22;4012;48.896;9.192;2023-08-08T00:36:17;14.60;99.90
7934;DHT22;4012;48.896;9.192;2023-08-08T00:38:42;14.60;99.90
7934;DHT22;4012;48.896;9.192;2023-08-08T00:41:08;14.60;99.90
7934;DHT22;4012;48.896;9.192;2023-08-08T00:43:33;14.60;99.90
7934;DHT22;4012;48.896;9.192;2023-08-08T00:45:59;14.60;99.90
7934;DHT22;4012;48.896;9.192;2023-08-08T00:48:25;14.60;99.90
7934;DHT22;4012;48.896;9.192;2023-08-08T00:50:51;14.60;99.90
7934;DHT22;4012;48.896;9.192;2023-08-08T00:53:18;14.60;99.90
7934;DHT22;4012;48.896;9.192;2023-08-08T00:55:45;14.60;99.90
7934;DHT22;4012;48.896;9.192;2023-08-08T00:58:10;14.60;99.90
7934;DHT22;4012;48.896;9.192;2023-08-08T01:00:36;14.60;99.90
7934;DHT22;4012;48.896;9.192;2023-08-08T01:03:02;14.70;99.90
7934;DHT22;4012;48.896;9.192;2023-08-08T01:05:33;14.70;99.90
7934;DHT22;4012;48.896;9.192;2023-08-08T01:08:04;14.70;99.90
7934;DHT22;4012;48.896;9.192;2023-08-08T01:10:34;14.60;99.90
7934;DHT22;4012;48.896;9.192;2023-08-08T01:13:17;14.60;99.90
7934;DHT22;4012;48.896;9.192;2023-08-08T01:15:46;14.70;99.90
7934;DHT22;4012;48.896;9.192;2023-08-08T01:18:13;14.70;99.90
7934;DHT22;4012;48.896;9.192;2023-08-08T01:20:41;14.80;99.90
7934;DHT22;4012;48.896;9.192;2023-08-08T01:23:17;14.80;99.90
7934;DHT22;4012;48.896;9.192;2023-08-08T01:25:44;14.80;99.90
7934;DHT22;4012;48.896;9.192;2023-08-08T01:28:11;14.80;99.90
7934;DHT22;4012;48.896;9.192;2023-08-08T01:30:37;14.80;99.90
7934;DHT22;4012;48.896;9.192;2023-08-08T01:33:03;14.90;99.90
7934;DHT22;4012;48.896;9.192;2023-08-08T01:35:31;14.80;99.90
7934;DHT22;4012;48.896;9.192;2023-08-08T01:38:12;14.80;99.90
7934;DHT22;4012;48.896;9.192;2023-08-08T01:40:39;14.80;99.90
7934;DHT22;4012;48.896;9.192;2023-08-08T01:43:06;14.80;99.90
7934;DHT22;4012;48.896;9.192;2023-08-08T01:45:32;14.80;99.90
7934;DHT22;4012;48.896;9.192;2023-08-08T01:47:58;14.80;99.90
7934;DHT22;4012;48.896;9.192;2023-08-08T01:50:24;14.80;99.90
7934;DHT22;4012;48.896;9.192;2023-08-08T01:52:50;14.80;99.90
7934;DHT22;4012;48.896;9.192;2023-08-08T01:55:16;14.80;99.90
7934;DHT22;4012;48.896;9.192;2023-08-08T01:57:42;14.80;99.90
7934;DHT22;4012;48.896;9.192;2023-08-08T02:00:08;14.90;99.90
7934;DHT22;4012;48.896;9.192;2023-08-08T02:02:33;14.90;99.90
7934;DHT22;4012;48.896;9.192;2023-08-08T02:05:01;14.80;99.90
7934;DHT22;4012;48.896;9.192;2023-08-08T02:07:27;14.80;99.90
7934;DHT22;4012;48.896;9.192;2023-08-08T02:09:52;14.80;99.90
7934;DHT22;4012;48.896;9.192;2023-08-08T02:12:18;14.80;99.90
7934;DHT22;4012;48.896;9.192;2023-08-08T02:14:44;14.90;99.90
7934;DHT22;4012;48.896;9.192;2023-08-08T02:17:09;14.80;99.90
7934;DHT22;4012;48.896;9.192;2023-08-08T02:19:35;14.80;99.90
7934;DHT22;4012;48.896;9.192;2023-08-08T02:22:01;14.80;99.90
7934;DHT22;4012;48.896;9.192;2023-08-08T02:24:27;14.80;99.90
7934;DHT22;4012;48.896;9.192;2023-08-08T02:26:52;14.80;99.90
7934;DHT22;4012;48.896;9.192;2023-08-08T02:29:18;14.70;99.90
7934;DHT22;4012;48.896;9.192;2023-08-08T02:31:43;14.70;99.90
7934;DHT22;4012;48.896;9.192;2023-08-08T02:34:09;14.60;99.90
7934;DHT22;4012;48.896;9.192;2023-08-08T02:36:34;14.60;99.90
7934;DHT22;4012;48.896;9.192;2023-08-08T02:39:00;14.60;99.90
7934;DHT22;4012;48.896;9.192;2023-08-08T02:41:25;14.50;99.90
7934;DHT22;4012;48.896;9.192;2023-08-08T02:43:51;14.50;99.90
7934;DHT22;4012;48.896;9.192;2023-08-08T02:46:16;14.40;99.90
7934;DHT22;4012;48.896;9.192;2023-08-08T02:48:42;14.40;99.90
7934;DHT22;4012;48.896;9.192;2023-08-08T02:51:08;14.40;99.90
7934;DHT22;4012;48.896;9.192;2023-08-08T02:53:33;14.30;99.90
7934;DHT22;4012;48.896;9.192;2023-08-08T02:55:59;14.30;99.90
7934;DHT22;4012;48.896;9.192;2023-08-08T02:58:24;14.20;99.90
7934;DHT22;4012;48.896;9.192;2023-08-08T03:00:50;14.20;99.90
7934;DHT22;4012;48.896;9.192;2023-08-08T03:03:15;14.20;99.90
7934;DHT22;4012;48.896;9.192;2023-08-08T03:05:41;14.20;99.90
7934;DHT22;4012;48.896;9.192;2023-08-08T03:08:07;14.10;99.90
7934;DHT22;4012;48.896;9.192;2023-08-08T03:10:32;14.10;99.90
7934;DHT22;4012;48.896;9.192;2023-08-08T03:12:58;14.10;99.90
7934;DHT22;4012;48.896;9.192;2023-08-08T03:15:23;14.00;99.90
7934;DHT22;4012;48.896;9.192;2023-08-08T03:17:49;14.00;99.90
7934;DHT22;4012;48.896;9.192;2023-08-08T03:20:15;13.90;99.90
7934;DHT22;4012;48.896;9.192;2023-08-08T03:22:40;13.90;99.90
7934;DHT22;4012;48.896;9.192;2023-08-08T03:25:06;13.90;99.90
7934;DHT22;4012;48.896;9.192;2023-08-08T03:27:32;13.80;99.90
7934;DHT22;4012;48.896;9.192;2023-08-08T03:29:58;13.90;99.90
7934;DHT22;4012;48.896;9.192;2023-08-08T03:32:23;13.80;99.90
7934;DHT22;4012;48.896;9.192;2023-08-08T03:34:49;13.90;99.90
7934;DHT22;4012;48.896;9.192;2023-08-08T03:37:15;13.80;99.90
7934;DHT22;4012;48.896;9.192;2023-08-08T03:39:40;13.90;99.90
7934;DHT22;4012;48.896;9.192;2023-08-08T03:42:06;13.80;99.90
7934;DHT22;4012;48.896;9.192;2023-08-08T03:44:32;13.80;99.90
7934;DHT22;4012;48.896;9.192;2023-08-08T03:46:57;13.90;99.90
7934;DHT22;4012;48.896;9.192;2023-08-08T03:49:23;13.90;99.90
7934;DHT22;4012;48.896;9.192;2023-08-08T03:51:48;14.00;99.90
7934;DHT22;4012;48.896;9.192;2023-08-08T03:54:14;14.10;99.90
7934;DHT22;4012;48.896;9.192;2023-08-08T03:56:40;14.10;99.90
7934;DHT22;4012;48.896;9.192;2023-08-08T03:59:06;14.10;99.90
7934;DHT22;4012;48.896;9.192;2023-08-08T04:01:32;14.10;99.90
7934;DHT22;4012;48.896;9.192;2023-08-08T04:03:58;14.10;99.90
7934;DHT22;4012;48.896;9.192;2023-08-08T04:06:24;14.20;99.90
7934;DHT22;4012;48.896;9.192;2023-08-08T04:08:49;14.20;99.90
7934;DHT22;4012;48.896;9.192;2023-08-08T04:11:15;14.20;99.90
7934;DHT22;4012;48.896;9.192;2023-08-08T04:13:40;14.20;99.90
7934;DHT22;4012;48.896;9.192;2023-08-08T04:16:06;14.30;99.90
7934;DHT22;4012;48.896;9.192;2023-08-08T04:18:32;14.30;99.90
7934;DHT22;4012;48.896;9.192;2023-08-08T04:20:57;14.40;99.90
7934;DHT22;4012;48.896;9.192;2023-08-08T04:23:23;14.40;99.90
7934;DHT22;4012;48.896;9.192;2023-08-08T04:25:54;14.40;99.90
7934;DHT22;4012;48.896;9.192;2023-08-08T04:28:19;14.40;99.90
7934;DHT22;4012;48.896;9.192;2023-08-08T04:30:45;14.40;99.90
7934;DHT22;4012;48.896;9.192;2023-08-08T04:33:10;14.40;99.90
7934;DHT22;4012;48.896;9.192;2023-08-08T04:35:36;14.40;99.90
7934;DHT22;4012;48.896;9.192;2023-08-08T04:38:02;14.40;99.90
7934;DHT22;4012;48.896;9.192;2023-08-08T04:40:27;14.50;99.90
7934;DHT22;4012;48.896;9.192;2023-08-08T04:42:53;14.50;99.90
7934;DHT22;4012;48.896;9.192;2023-08-08T04:45:18;14.50;99.90
7934;DHT22;4012;48.896;9.192;2023-08-08T04:47:44;14.60;99.90
7934;DHT22;4012;48.896;9.192;2023-08-08T04:50:10;14.60;99.90
7934;DHT22;4012;48.896;9.192;2023-08-08T04:52:36;14.70;99.90
7934;DHT22;4012;48.896;9.192;2023-08-08T04:55:01;14.70;99.90
7934;DHT22;4012;48.896;9.192;2023-08-08T04:57:27;14.70;99.90
7934;DHT22;4012;48.896;9.192;2023-08-08T04:59:52;14.70;99.90
7934;DHT22;4012;48.896;9.192;2023-08-08T05:02:18;14.70;99.90
7934;DHT22;4012;48.896;9.192;2023-08-08T05:04:44;14.70;99.90
7934;DHT22;4012;48.896;9.192;2023-08-08T05:07:09;14.80;99.90
7934;DHT22;4012;48.896;9.192;2023-08-08T05:09:35;14.90;99.90
7934;DHT22;4012;48.896;9.192;2023-08-08T05:12:00;14.90;99.90
7934;DHT22;4012;48.896;9.192;2023-08-08T05:14:26;15.00;99.90
7934;DHT22;4012;48.896;9.192;2023-08-08T05:16:52;15.00;99.90
7934;DHT22;4012;48.896;9.192;2023-08-08T05:19:17;15.10;99.90
7934;DHT22;4012;48.896;9.192;2023-08-08T05:21:43;15.20;99.90
7934;DHT22;4012;48.896;9.192;2023-08-08T05:24:08;15.30;99.90
7934;DHT22;4012;48.896;9.192;2023-08-08T05:26:34;15.40;99.90
7934;DHT22;4012;48.896;9.192;2023-08-08T05:29:00;15.40;99.90
7934;DHT22;4012;48.896;9.192;2023-08-08T05:31:25;15.40;99.90
7934;DHT22;4012;48.896;9.192;2023-08-08T05:33:51;15.40;99.90
7934;DHT22;4012;48.896;9.192;2023-08-08T05:36:16;15.40;99.90
7934;DHT22;4012;48.896;9.192;2023-08-08T05:38:42;15.50;99.90
7934;DHT22;4012;48.896;9.192;2023-08-08T05:41:08;15.60;99.90
7934;DHT22;4012;48.896;9.192;2023-08-08T05:43:33;15.60;99.90
7934;DHT22;4012;48.896;9.192;2023-08-08T05:45:59;15.60;99.90
7934;DHT22;4012;48.896;9.192;2023-08-08T05:48:25;15.60;99.90
7934;DHT22;4012;48.896;9.192;2023-08-08T05:50:50;15.80;99.90
7934;DHT22;4012;48.896;9.192;2023-08-08T05:53:16;15.70;99.90
7934;DHT22;4012;48.896;9.192;2023-08-08T05:55:41;15.80;99.90
7934;DHT22;4012;48.896;9.192;2023-08-08T05:58:10;15.80;99.90
7934;DHT22;4012;48.896;9.192;2023-08-08T06:00:35;15.80;99.90
7934;DHT22;4012;48.896;9.192;2023-08-08T06:03:01;15.90;99.90
7934;DHT22;4012;48.896;9.192;2023-08-08T06:05:27;15.90;99.90
7934;DHT22;4012;48.896;9.192;2023-08-08T06:07:53;15.90;99.90
7934;DHT22;4012;48.896;9.192;2023-08-08T06:10:21;15.90;99.90
7934;DHT22;4012;48.896;9.192;2023-08-08T06:12:46;16.00;99.90
7934;DHT22;4012;48.896;9.192;2023-08-08T06:15:12;16.00;99.90
7934;DHT22;4012;48.896;9.192;2023-08-08T06:17:38;16.10;99.90
7934;DHT22;4012;48.896;9.192;2023-08-08T06:20:04;16.30;99.90
7934;DHT22;4012;48.896;9.192;2023-08-08T06:22:32;16.30;99.90
7934;DHT22;4012;48.896;9.192;2023-08-08T06:24:57;16.40;99.90
7934;DHT22;4012;48.896;9.192;2023-08-08T06:27:23;16.60;99.90
7934;DHT22;4012;48.896;9.192;2023-08-08T06:29:49;16.80;99.90
7934;DHT22;4012;48.896;9.192;2023-08-08T06:32:14;17.80;99.90
7934;DHT22;4012;48.896;9.192;2023-08-08T06:34:40;19.40;99.90
7934;DHT22;4012;48.896;9.192;2023-08-08T06:37:05;19.70;99.90
7934;DHT22;4012;48.896;9.192;2023-08-08T06:39:31;21.20;99.90
7934;DHT22;4012;48.896;9.192;2023-08-08T06:41:57;23.30;99.90
7934;DHT22;4012;48.896;9.192;2023-08-08T06:44:23;24.30;99.90
7934;DHT22;4012;48.896;9.192;2023-08-08T06:46:48;24.40;99.90
7934;DHT22;4012;48.896;9.192;2023-08-08T06:49:14;23.30;99.90
7934;DHT22;4012;48.896;9.192;2023-08-08T06:51:39;22.50;99.90
7934;DHT22;4012;48.896;9.192;2023-08-08T06:54:05;23.10;99.90
7934;DHT22;4012;48.896;9.192;2023-08-08T06:56:31;23.00;99.90
7934;DHT22;4012;48.896;9.192;2023-08-08T06:58:57;23.90;99.90
7934;DHT22;4012;48.896;9.192;2023-08-08T07:01:22;24.40;99.90
7934;DHT22;4012;48.896;9.192;2023-08-08T07:03:48;23.80;99.90
7934;DHT22;4012;48.896;9.192;2023-08-08T07:06:17;24.10;99.90
7934;DHT22;4012;48.896;9.192;2023-08-08T07:08:42;24.00;99.90
7934;DHT22;4012;48.896;9.192;2023-08-08T07:11:08;25.30;99.90
7934;DHT22;4012;48.896;9.192;2023-08-08T07:13:34;27.00;99.90
7934;DHT22;4012;48.896;9.192;2023-08-08T07:15:59;27.00;99.90
7934;DHT22;4012;48.896;9.192;2023-08-08T07:18:25;27.10;99.90
7934;DHT22;4012;48.896;9.192;2023-08-08T07:20:51;25.90;99.90
7934;DHT22;4012;48.896;9.192;2023-08-08T07:23:16;25.50;99.90
7934;DHT22;4012;48.896;9.192;2023-08-08T07:25:42;27.20;99.90
7934;DHT22;4012;48.896;9.192;2023-08-08T07:28:08;26.60;99.90
7934;DHT22;4012;48.896;9.192;2023-08-08T07:30:34;24.80;99.90
7934;DHT22;4012;48.896;9.192;2023-08-08T07:33:00;25.60;99.90
7934;DHT22;4012;48.896;9.192;2023-08-08T07:35:26;27.70;99.90
7934;DHT22;4012;48.896;9.192;2023-08-08T07:37:52;29.40;99.90
7934;DHT22;4012;48.896;9.192;2023-08-08T07:40:19;28.30;99.90
7934;DHT22;4012;48.896;9.192;2023-08-08T07:42:46;27.40;99.90
7934;DHT22;4012;48.896;9.192;2023-08-08T07:45:11;29.70;99.90
7934;DHT22;4012;48.896;9.192;2023-08-08T07:47:37;30.80;99.90
7934;DHT22;4012;48.896;9.192;2023-08-08T07:50:03;31.10;99.90
7934;DHT22;4012;48.896;9.192;2023-08-08T07:52:29;29.80;99.90
7934;DHT22;4012;48.896;9.192;2023-08-08T07:54:54;30.70;99.90
7934;DHT22;4012;48.896;9.192;2023-08-08T07:57:20;31.00;99.90
7934;DHT22;4012;48.896;9.192;2023-08-08T07:59:45;29.90;99.90
7934;DHT22;4012;48.896;9.192;2023-08-08T08:02:11;31.10;99.90
7934;DHT22;4012;48.896;9.192;2023-08-08T08:04:36;27.60;99.90
7934;DHT22;4012;48.896;9.192;2023-08-08T08:07:02;25.50;99.90
7934;DHT22;4012;48.896;9.192;2023-08-08T08:09:28;23.90;99.90
7934;DHT22;4012;48.896;9.192;2023-08-08T08:11:54;24.20;99.90
7934;DHT22;4012;48.896;9.192;2023-08-08T08:14:21;23.10;99.90
7934;DHT22;4012;48.896;9.192;2023-08-08T08:16:47;23.80;99.90
7934;DHT22;4012;48.896;9.192;2023-08-08T08:19:13;24.70;99.90
7934;DHT22;4012;48.896;9.192;2023-08-08T08:21:39;23.50;99.90
7934;DHT22;4012;48.896;9.192;2023-08-08T08:24:05;22.80;99.90
7934;DHT22;4012;48.896;9.192;2023-08-08T08:26:31;23.40;99.90
7934;DHT22;4012;48.896;9.192;2023-08-08T08:28:57;23.10;99.90
7934;DHT22;4012;48.896;9.192;2023-08-08T08:31:23;23.50;99.90
7934;DHT22;4012;48.896;9.192;2023-08-08T08:33:49;24.10;99.90
7934;DHT22;4012;48.896;9.192;2023-08-08T08:36:14;24.70;99.90
7934;DHT22;4012;48.896;9.192;2023-08-08T08:38:40;24.90;99.90
7934;DHT22;4012;48.896;9.192;2023-08-08T08:41:06;23.80;99.90
7934;DHT22;4012;48.896;9.192;2023-08-08T08:43:31;24.00;99.90
7934;DHT22;4012;48.896;9.192;2023-08-08T08:45:59;24.50;99.90
7934;DHT22;4012;48.896;9.192;2023-08-08T08:48:25;24.50;99.90
7934;DHT22;4012;48.896;9.192;2023-08-08T08:50:51;26.20;99.90
7934;DHT22;4012;48.896;9.192;2023-08-08T08:53:17;25.90;99.90
7934;DHT22;4012;48.896;9.192;2023-08-08T08:55:43;25.60;99.90
7934;DHT22;4012;48.896;9.192;2023-08-08T08:58:10;26.50;99.90
7934;DHT22;4012;48.896;9.192;2023-08-08T09:00:36;25.10;99.90
7934;DHT22;4012;48.896;9.192;2023-08-08T09:03:03;24.70;99.90
7934;DHT22;4012;48.896;9.192;2023-08-08T09:05:29;25.00;99.90
7934;DHT22;4012;48.896;9.192;2023-08-08T09:07:56;25.00;99.90
7934;DHT22;4012;48.896;9.192;2023-08-08T09:10:21;25.00;99.90
7934;DHT22;4012;48.896;9.192;2023-08-08T09:12:47;25.90;99.90
7934;DHT22;4012;48.896;9.192;2023-08-08T09:15:14;25.50;99.90
7934;DHT22;4012;48.896;9.192;2023-08-08T09:17:44;24.70;99.90
7934;DHT22;4012;48.896;9.192;2023-08-08T09:20:12;24.30;99.90
7934;DHT22;4012;48.896;9.192;2023-08-08T09:22:38;25.20;99.90
7934;DHT22;4012;48.896;9.192;2023-08-08T09:25:05;24.80;99.90
7934;DHT22;4012;48.896;9.192;2023-08-08T09:27:31;24.80;99.90
7934;DHT22;4012;48.896;9.192;2023-08-08T09:29:57;25.10;99.90
7934;DHT22;4012;48.896;9.192;2023-08-08T09:32:22;25.50;99.90
7934;DHT22;4012;48.896;9.192;2023-08-08T09:34:48;25.80;99.90
7934;DHT22;4012;48.896;9.192;2023-08-08T09:37:14;25.10;99.90
7934;DHT22;4012;48.896;9.192;2023-08-08T09:39:40;24.60;99.90
7934;DHT22;4012;48.896;9.192;2023-08-08T09:42:07;25.60;99.90
7934;DHT22;4012;48.896;9.192;2023-08-08T09:44:33;27.30;99.90
7934;DHT22;4012;48.896;9.192;2023-08-08T09:47:00;25.70;99.90
7934;DHT22;4012;48.896;9.192;2023-08-08T09:49:27;25.10;99.90
7934;DHT22;4012;48.896;9.192;2023-08-08T09:51:54;25.70;99.90
7934;DHT22;4012;48.896;9.192;2023-08-08T09:54:21;26.60;99.90
7934;DHT22;4012;48.896;9.192;2023-08-08T09:56:48;26.10;99.90
7934;DHT22;4012;48.896;9.192;2023-08-08T09:59:16;27.20;99.90
7934;DHT22;4012;48.896;9.192;2023-08-08T10:01:43;27.10;99.90
7934;DHT22;4012;48.896;9.192;2023-08-08T10:04:11;28.10;99.90
7934;DHT22;4012;48.896;9.192;2023-08-08T10:06:37;27.40;99.90
7934;DHT22;4012;48.896;9.192;2023-08-08T10:09:03;26.40;99.90
7934;DHT22;4012;48.896;9.192;2023-08-08T10:11:30;27.10;99.90
7934;DHT22;4012;48.896;9.192;2023-08-08T10:13:57;28.00;99.90
7934;DHT22;4012;48.896;9.192;2023-08-08T10:16:23;28.00;99.90
7934;DHT22;4012;48.896;9.192;2023-08-08T10:18:59;28.70;99.90
7934;DHT22;4012;48.896;9.192;2023-08-08T10:21:26;28.20;99.90
7934;DHT22;4012;48.896;9.192;2023-08-08T10:24:06;26.10;99.90
7934;DHT22;4012;48.896;9.192;2023-08-08T10:26:32;25.50;99.90
7934;DHT22;4012;48.896;9.192;2023-08-08T10:29:00;26.90;99.90
7934;DHT22;4012;48.896;9.192;2023-08-08T10:31:26;26.70;99.90
7934;DHT22;4012;48.896;9.192;2023-08-08T10:34:02;26.60;99.90
7934;DHT22;4012;48.896;9.192;2023-08-08T10:36:43;26.60;99.90
7934;DHT22;4012;48.896;9.192;2023-08-08T10:39:15;26.40;99.90
7934;DHT22;4012;48.896;9.192;2023-08-08T10:41:49;25.90;99.90
7934;DHT22;4012;48.896;9.192;2023-08-08T10:44:22;27.00;99.90
7934;DHT22;4012;48.896;9.192;2023-08-08T10:46:49;26.90;99.90
7934;DHT22;4012;48.896;9.192;2023-08-08T10:49:17;25.60;99.90
7934;DHT22;4012;48.896;9.192;2023-08-08T10:51:45;25.20;99.90
7934;DHT22;4012;48.896;9.192;2023-08-08T10:54:22;25.30;99.90
7934;DHT22;4012;48.896;9.192;2023-08-08T10:56:53;25.00;99.90
7934;DHT22;4012;48.896;9.192;2023-08-08T10:59:26;25.50;99.90
7934;DHT22;4012;48.896;9.192;2023-08-08T11:01:53;25.70;99.90
7934;DHT22;4012;48.896;9.192;2023-08-08T11:04:21;24.90;99.90
7934;DHT22;4012;48.896;9.192;2023-08-08T11:06:47;25.20;99.90
7934;DHT22;4012;48.896;9.192;2023-08-08T11:09:15;25.10;99.90
7934;DHT22;4012;48.896;9.192;2023-08-08T11:11:43;25.00;99.90
7934;DHT22;4012;48.896;9.192;2023-08-08T11:14:11;25.30;99.90
7934;DHT22;4012;48.896;9.192;2023-08-08T11:16:37;24.90;99.90
7934;DHT22;4012;48.896;9.192;2023-08-08T11:19:03;23.80;99.90
7934;DHT22;4012;48.896;9.192;2023-08-08T11:21:29;24.20;99.90
7934;DHT22;4012;48.896;9.192;2023-08-08T11:23:55;24.00;99.90
7934;DHT22;4012;48.896;9.192;2023-08-08T11:26:20;23.80;99.90
7934;DHT22;4012;48.896;9.192;2023-08-08T11:28:52;23.90;99.90
7934;DHT22;4012;48.896;9.192;2023-08-08T11:31:20;24.20;99.90
7934;DHT22;4012;48.896;9.192;2023-08-08T11:33:47;23.90;99.90
7934;DHT22;4012;48.896;9.192;2023-08-08T11:36:14;23.70;99.90
7934;DHT22;4012;48.896;9.192;2023-08-08T11:38:41;23.50;99.90
7934;DHT22;4012;48.896;9.192;2023-08-08T11:41:09;23.80;99.90
7934;DHT22;4012;48.896;9.192;2023-08-08T11:43:37;23.90;99.90
7934;DHT22;4012;48.896;9.192;2023-08-08T11:46:03;23.60;99.90
7934;DHT22;4012;48.896;9.192;2023-08-08T11:48:28;24.30;99.90
7934;DHT22;4012;48.896;9.192;2023-08-08T11:50:54;24.40;99.90
7934;DHT22;4012;48.896;9.192;2023-08-08T11:53:20;24.00;99.90
7934;DHT22;4012;48.896;9.192;2023-08-08T11:55:46;24.10;99.90
7934;DHT22;4012;48.896;9.192;2023-08-08T11:58:15;24.50;99.90
7934;DHT22;4012;48.896;9.192;2023-08-08T12:00:43;24.40;99.90
7934;DHT22;4012;48.896;9.192;2023-08-08T12:03:11;24.80;99.90
7934;DHT22;4012;48.896;9.192;2023-08-08T12:05:39;24.50;99.90
7934;DHT22;4012;48.896;9.192;2023-08-08T12:08:06;24.60;99.90
7934;DHT22;4012;48.896;9.192;2023-08-08T12:10:32;23.90;99.90
7934;DHT22;4012;48.896;9.192;2023-08-08T12:12:58;23.70;99.90
7934;DHT22;4012;48.896;9.192;2023-08-08T12:15:32;23.80;99.90
7934;DHT22;4012;48.896;9.192;2023-08-08T12:17:59;24.00;99.90
7934;DHT22;4012;48.896;9.192;2023-08-08T12:20:27;24.40;99.90
7934;DHT22;4012;48.896;9.192;2023-08-08T12:22:54;24.60;99.90
7934;DHT22;4012;48.896;9.192;2023-08-08T12:25:20;24.50;99.90
7934;DHT22;4012;48.896;9.192;2023-08-08T12:27:46;24.70;99.90
7934;DHT22;4012;48.896;9.192;2023-08-08T12:30:11;24.30;99.90
7934;DHT22;4012;48.896;9.192;2023-08-08T12:32:37;24.70;99.90
7934;DHT22;4012;48.896;9.192;2023-08-08T12:35:03;24.70;99.90
7934;DHT22;4012;48.896;9.192;2023-08-08T12:37:29;24.20;99.90
7934;DHT22;4012;48.896;9.192;2023-08-08T12:39:54;24.00;99.90
7934;DHT22;4012;48.896;9.192;2023-08-08T12:42:20;24.20;99.90
7934;DHT22;4012;48.896;9.192;2023-08-08T12:44:46;23.90;99.90
7934;DHT22;4012;48.896;9.192;2023-08-08T12:47:12;24.00;99.90
7934;DHT22;4012;48.896;9.192;2023-08-08T12:49:39;24.20;99.90
7934;DHT22;4012;48.896;9.192;2023-08-08T12:52:05;24.60;99.90
7934;DHT22;4012;48.896;9.192;2023-08-08T12:54:31;24.30;99.90
7934;DHT22;4012;48.896;9.192;2023-08-08T12:56:56;24.30;99.90
7934;DHT22;4012;48.896;9.192;2023-08-08T12:59:22;23.90;99.90
7934;DHT22;4012;48.896;9.192;2023-08-08T13:01:47;23.90;99.90
7934;DHT22;4012;48.896;9.192;2023-08-08T13:04:13;24.40;99.90
7934;DHT22;4012;48.896;9.192;2023-08-08T13:06:38;24.70;99.90
7934;DHT22;4012;48.896;9.192;2023-08-08T13:09:04;24.10;99.90
7934;DHT22;4012;48.896;9.192;2023-08-08T13:11:30;24.40;99.90
7934;DHT22;4012;48.896;9.192;2023-08-08T13:13:55;24.30;99.90
7934;DHT22;4012;48.896;9.192;2023-08-08T13:16:21;24.60;99.90
7934;DHT22;4012;48.896;9.192;2023-08-08T13:18:47;24.10;99.90
7934;DHT22;4012;48.896;9.192;2023-08-08T13:21:12;24.20;99.90
7934;DHT22;4012;48.896;9.192;2023-08-08T13:23:40;24.30;99.90
7934;DHT22;4012;48.896;9.192;2023-08-08T13:26:06;24.70;99.90
7934;DHT22;4012;48.896;9.192;2023-08-08T13:28:31;24.90;99.90
7934;DHT22;4012;48.896;9.192;2023-08-08T13:30:57;24.50;99.90
7934;DHT22;4012;48.896;9.192;2023-08-08T13:33:23;24.20;99.90
7934;DHT22;4012;48.896;9.192;2023-08-08T13:35:48;24.10;99.90
7934;DHT22;4012;48.896;9.192;2023-08-08T13:38:14;24.10;99.90
7934;DHT22;4012;48.896;9.192;2023-08-08T13:40:43;24.00;99.90
7934;DHT22;4012;48.896;9.192;2023-08-08T13:43:09;24.10;99.90
7934;DHT22;4012;48.896;9.192;2023-08-08T13:45:35;24.20;99.90
7934;DHT22;4012;48.896;9.192;2023-08-08T13:48:00;24.40;99.90
7934;DHT22;4012;48.896;9.192;2023-08-08T13:50:26;24.50;99.90
7934;DHT22;4012;48.896;9.192;2023-08-08T13:52:52;24.70;99.90
7934;DHT22;4012;48.896;9.192;2023-08-08T13:55:18;24.10;99.90
7934;DHT22;4012;48.896;9.192;2023-08-08T13:57:44;24.00;99.90
7934;DHT22;4012;48.896;9.192;2023-08-08T14:00:10;23.90;99.90
7934;DHT22;4012;48.896;9.192;2023-08-08T14:02:38;23.90;99.90
7934;DHT22;4012;48.896;9.192;2023-08-08T14:05:05;23.60;99.90
7934;DHT22;4012;48.896;9.192;2023-08-08T14:07:32;23.70;99.90
7934;DHT22;4012;48.896;9.192;2023-08-08T14:09:59;23.70;99.90
7934;DHT22;4012;48.896;9.192;2023-08-08T14:12:24;24.20;99.90
7934;DHT22;4012;48.896;9.192;2023-08-08T14:14:50;24.20;99.90
7934;DHT22;4012;48.896;9.192;2023-08-08T14:17:16;24.20;99.90
7934;DHT22;4012;48.896;9.192;2023-08-08T14:19:41;24.50;99.90
7934;DHT22;4012;48.896;9.192;2023-08-08T14:22:07;24.80;99.90
7934;DHT22;4012;48.896;9.192;2023-08-08T14:24:32;24.50;99.90
7934;DHT22;4012;48.896;9.192;2023-08-08T14:26:58;24.30;99.90
7934;DHT22;4012;48.896;9.192;2023-08-08T14:29:23;24.40;99.90
7934;DHT22;4012;48.896;9.192;2023-08-08T14:31:49;23.70;99.90
7934;DHT22;4012;48.896;9.192;2023-08-08T14:34:15;24.00;99.90
7934;DHT22;4012;48.896;9.192;2023-08-08T14:36:40;24.00;99.90
7934;DHT22;4012;48.896;9.192;2023-08-08T14:39:07;23.60;99.90
7934;DHT22;4012;48.896;9.192;2023-08-08T14:41:32;23.80;99.90
7934;DHT22;4012;48.896;9.192;2023-08-08T14:43:58;23.60;99.90
7934;DHT22;4012;48.896;9.192;2023-08-08T14:46:24;23.70;99.90
7934;DHT22;4012;48.896;9.192;2023-08-08T14:48:50;23.60;99.90
7934;DHT22;4012;48.896;9.192;2023-08-08T14:51:15;23.10;99.90
7934;DHT22;4012;48.896;9.192;2023-08-08T14:53:44;23.00;99.90
7934;DHT22;4012;48.896;9.192;2023-08-08T14:56:10;22.80;99.90
7934;DHT22;4012;48.896;9.192;2023-08-08T14:58:36;23.00;99.90
7934;DHT22;4012;48.896;9.192;2023-08-08T15:01:02;23.30;99.90
7934;DHT22;4012;48.896;9.192;2023-08-08T15:03:27;23.50;99.90
7934;DHT22;4012;48.896;9.192;2023-08-08T15:05:53;23.10;99.90
7934;DHT22;4012;48.896;9.192;2023-08-08T15:08:19;23.00;99.90
7934;DHT22;4012;48.896;9.192;2023-08-08T15:10:46;22.80;99.90
7934;DHT22;4012;48.896;9.192;2023-08-08T15:13:12;22.90;99.90
7934;DHT22;4012;48.896;9.192;2023-08-08T15:15:37;22.90;99.90
7934;DHT22;4012;48.896;9.192;2023-08-08T15:18:03;22.70;99.90
7934;DHT22;4012;48.896;9.192;2023-08-08T15:20:29;22.60;99.90
7934;DHT22;4012;48.896;9.192;2023-08-08T15:22:54;22.80;99.90
7934;DHT22;4012;48.896;9.192;2023-08-08T15:25:20;23.20;99.90
7934;DHT22;4012;48.896;9.192;2023-08-08T15:27:45;23.50;99.90
7934;DHT22;4012;48.896;9.192;2023-08-08T15:30:11;23.30;99.90
7934;DHT22;4012;48.896;9.192;2023-08-08T15:32:37;22.80;99.90
7934;DHT22;4012;48.896;9.192;2023-08-08T15:35:03;22.90;99.90
7934;DHT22;4012;48.896;9.192;2023-08-08T15:37:28;23.00;99.90
7934;DHT22;4012;48.896;9.192;2023-08-08T15:39:54;22.60;99.90
7934;DHT22;4012;48.896;9.192;2023-08-08T15:42:20;22.90;99.90
7934;DHT22;4012;48.896;9.192;2023-08-08T15:44:45;22.80;99.90
7934;DHT22;4012;48.896;9.192;2023-08-08T15:47:11;22.70;99.90
7934;DHT22;4012;48.896;9.192;2023-08-08T15:49:37;22.90;99.90
7934;DHT22;4012;48.896;9.192;2023-08-08T15:52:02;23.00;99.90
7934;DHT22;4012;48.896;9.192;2023-08-08T15:54:28;23.50;99.90
7934;DHT22;4012;48.896;9.192;2023-08-08T15:56:54;23.40;99.90